Laughlin Air Force Base
KDLF : now visible

Airfield :











YOU CAN JOIN US ON...

 
LOGIN :

Register | Disclaimer

   EN    FR    IT 

 









Legend :    VFR   Marginal VFR   IFR   Intensive IFR   Very Intensive IFR
Visi :
Ceiling :
>= 8 km
>= 3000ft
5 to 8 km
1000 to 3000 ft
1500m to 5 km
500 to 1000 ft
800 to 1500m
200 to 500 ft
< 800m
< 200 ft
Symbols :   Thunderstorms  Fog  Heavy snow  Heavy precipitations  Wind > 20 kt






- Airport Elevation : 1082 ft


KDLF - Laughlin Air Force Base

CURRENT METAR :
  • 231056Z AUTO 11009KT 10SM CLR 19/18 A2989 RMK AO2 SLP110 T01940180 $

EXPIRED METARs :
  • 230956Z AUTO 12008KT 10SM M 20/18 A2990 RMK AO2 SLP114 T02000181 $
  • 230856Z AUTO 12006KT 10SM M 21/18 A2991 RMK AO2 SLP117 T02070181 57012 $

TAF AMD TAF KDLF
Valid from the 22 at 23:00 until the 24 at 01:00 UTC


222300Z 2223/2401 11010KT 9999 BKN040 QNH2992INS
BECMG 2300/2301 12009KT 9999 SCT050 QNH2990INS
BECMG 2308/2309 12009KT 9999 SCT015 SCT050 QNH2988INS
BECMG 2311/2312 12010KT 9999 BKN010 BKN040 QNH2989INS
TEMPO 2313/2315 4400 BR BKN007
BECMG 2315/2316 14012G20KT 9999 BKN015 BKN045 QNH2992INS
BECMG 2318/2319 14012G20KT 9999 SCT020 QNH2975INS
BECMG 2400/2401 13010KT 9999 SCT045 QNH2975INS TX30/2321Z TN20/2311Z LAST NO AMDS AFT 2223 NXT 2419Z
KZHU FIR / North America



MET'MAP, your aeronautical weather chart ! - Copyright ORBIFLY December 2007 - Disclaimer

ORBIFLY MET'MAP TEAM :

Programming & Development : Alexandra Zaïnal
Concept & original design : Baudouin d'Aumeries
Assistance for programming : Marc-Olivier Méhu
Technical & hardware support : Manuel Goepfert

Contact : metmap@orbifly.com




SOURCES & CREDITS :

   NOAA       Earth
Advisory